Aviation Digital Data Service (ADDS)

Output produced by METARs form (1601 UTC 28 April 2017)
found at http://aviationweather.gov/adds/metars/
 
KPIT 281454Z 2815/2918 21005KT P6SM BKN200 
     FM290400 14004KT P6SM VCSH OVC090 
     FM290800 20005KT P6SM VCSH OVC045 
     FM291300 23007KT P6SM VCSH OVC020